sensor_id;sensor_type;location;lat;lon;timestamp;P1;durP1;ratioP1;P2;durP2;ratioP2
35506;SDS011;36461;52.018;21.036;2023-01-09T00:02:12;34.70;;;22.10;;
35506;SDS011;36461;52.018;21.036;2023-01-09T00:04:40;33.80;;;20.40;;
35506;SDS011;36461;52.018;21.036;2023-01-09T00:07:08;34.00;;;20.90;;
35506;SDS011;36461;52.018;21.036;2023-01-09T00:09:36;33.10;;;20.80;;
35506;SDS011;36461;52.018;21.036;2023-01-09T00:12:04;34.00;;;20.20;;
35506;SDS011;36461;52.018;21.036;2023-01-09T00:14:32;33.30;;;20.50;;
35506;SDS011;36461;52.018;21.036;2023-01-09T00:17:00;33.10;;;19.90;;
35506;SDS011;36461;52.018;21.036;2023-01-09T00:19:28;34.10;;;21.40;;
35506;SDS011;36461;52.018;21.036;2023-01-09T00:21:56;32.80;;;20.20;;
35506;SDS011;36461;52.018;21.036;2023-01-09T00:24:24;30.40;;;20.30;;
35506;SDS011;36461;52.018;21.036;2023-01-09T00:26:52;33.30;;;20.60;;
35506;SDS011;36461;52.018;21.036;2023-01-09T00:29:20;33.40;;;20.80;;
35506;SDS011;36461;52.018;21.036;2023-01-09T00:31:49;33.80;;;21.90;;
35506;SDS011;36461;52.018;21.036;2023-01-09T00:34:17;28.70;;;19.00;;
35506;SDS011;36461;52.018;21.036;2023-01-09T00:36:45;31.30;;;20.30;;
35506;SDS011;36461;52.018;21.036;2023-01-09T00:39:13;28.30;;;18.70;;
35506;SDS011;36461;52.018;21.036;2023-01-09T00:41:45;32.60;;;19.70;;
35506;SDS011;36461;52.018;21.036;2023-01-09T00:44:17;32.60;;;21.10;;
35506;SDS011;36461;52.018;21.036;2023-01-09T00:46:51;30.10;;;19.30;;
35506;SDS011;36461;52.018;21.036;2023-01-09T00:49:26;33.00;;;21.00;;
35506;SDS011;36461;52.018;21.036;2023-01-09T00:51:57;31.40;;;20.50;;
35506;SDS011;36461;52.018;21.036;2023-01-09T00:54:26;32.60;;;20.00;;
35506;SDS011;36461;52.018;21.036;2023-01-09T00:56:55;31.20;;;20.50;;
35506;SDS011;36461;52.018;21.036;2023-01-09T00:59:25;32.30;;;20.50;;
35506;SDS011;36461;52.018;21.036;2023-01-09T01:01:54;32.30;;;20.60;;
35506;SDS011;36461;52.018;21.036;2023-01-09T01:04:23;30.10;;;19.20;;
35506;SDS011;36461;52.018;21.036;2023-01-09T01:07:10;29.80;;;20.10;;
35506;SDS011;36461;52.018;21.036;2023-01-09T01:09:57;30.20;;;19.20;;
35506;SDS011;36461;52.018;21.036;2023-01-09T01:12:25;31.40;;;20.30;;
35506;SDS011;36461;52.018;21.036;2023-01-09T01:14:53;31.30;;;19.90;;
35506;SDS011;36461;52.018;21.036;2023-01-09T01:17:21;30.40;;;19.90;;
35506;SDS011;36461;52.018;21.036;2023-01-09T01:19:49;28.70;;;18.10;;
35506;SDS011;36461;52.018;21.036;2023-01-09T01:22:17;32.50;;;20.20;;
35506;SDS011;36461;52.018;21.036;2023-01-09T01:24:45;30.20;;;19.60;;
35506;SDS011;36461;52.018;21.036;2023-01-09T01:27:13;31.60;;;20.40;;
35506;SDS011;36461;52.018;21.036;2023-01-09T01:29:41;29.80;;;19.60;;
35506;SDS011;36461;52.018;21.036;2023-01-09T01:32:09;32.20;;;20.10;;
35506;SDS011;36461;52.018;21.036;2023-01-09T01:34:38;30.80;;;19.40;;
35506;SDS011;36461;52.018;21.036;2023-01-09T01:37:06;32.80;;;20.80;;
35506;SDS011;36461;52.018;21.036;2023-01-09T01:39:34;33.50;;;20.00;;
35506;SDS011;36461;52.018;21.036;2023-01-09T01:42:03;29.90;;;20.40;;
35506;SDS011;36461;52.018;21.036;2023-01-09T01:50:01;32.70;;;20.30;;
35506;SDS011;36461;52.018;21.036;2023-01-09T01:52:35;31.50;;;20.20;;
35506;SDS011;36461;52.018;21.036;2023-01-09T01:55:05;31.50;;;19.20;;
35506;SDS011;36461;52.018;21.036;2023-01-09T01:57:35;30.20;;;20.10;;
35506;SDS011;36461;52.018;21.036;2023-01-09T02:00:06;30.20;;;20.40;;
35506;SDS011;36461;52.018;21.036;2023-01-09T02:02:35;30.10;;;19.80;;
35506;SDS011;36461;52.018;21.036;2023-01-09T02:05:04;29.00;;;19.60;;
35506;SDS011;36461;52.018;21.036;2023-01-09T02:07:32;31.10;;;20.60;;
35506;SDS011;36461;52.018;21.036;2023-01-09T02:10:01;31.20;;;20.20;;
35506;SDS011;36461;52.018;21.036;2023-01-09T02:12:30;29.50;;;19.30;;
35506;SDS011;36461;52.018;21.036;2023-01-09T02:15:02;31.40;;;21.10;;
35506;SDS011;36461;52.018;21.036;2023-01-09T02:37:27;28.90;;;19.40;;
35506;SDS011;36461;52.018;21.036;2023-01-09T02:40:08;31.70;;;21.10;;
35506;SDS011;36461;52.018;21.036;2023-01-09T02:42:44;32.00;;;21.50;;
35506;SDS011;36461;52.018;21.036;2023-01-09T02:45:14;31.20;;;20.90;;
35506;SDS011;36461;52.018;21.036;2023-01-09T02:47:44;33.60;;;20.20;;
35506;SDS011;36461;52.018;21.036;2023-01-09T02:50:14;29.90;;;19.60;;
35506;SDS011;36461;52.018;21.036;2023-01-09T02:53:08;32.40;;;21.70;;
35506;SDS011;36461;52.018;21.036;2023-01-09T02:59:09;30.70;;;19.20;;
35506;SDS011;36461;52.018;21.036;2023-01-09T03:04:27;27.80;;;19.20;;
35506;SDS011;36461;52.018;21.036;2023-01-09T03:07:00;32.80;;;19.50;;
35506;SDS011;36461;52.018;21.036;2023-01-09T03:09:38;28.90;;;18.60;;
35506;SDS011;36461;52.018;21.036;2023-01-09T03:12:13;29.00;;;18.50;;
35506;SDS011;36461;52.018;21.036;2023-01-09T03:14:47;30.30;;;20.10;;
35506;SDS011;36461;52.018;21.036;2023-01-09T03:17:26;30.30;;;19.30;;
35506;SDS011;36461;52.018;21.036;2023-01-09T03:19:58;27.80;;;18.80;;
35506;SDS011;36461;52.018;21.036;2023-01-09T03:22:29;28.40;;;18.60;;
35506;SDS011;36461;52.018;21.036;2023-01-09T03:24:57;29.30;;;18.20;;
35506;SDS011;36461;52.018;21.036;2023-01-09T03:27:26;28.20;;;19.20;;
35506;SDS011;36461;52.018;21.036;2023-01-09T03:29:55;28.10;;;19.30;;
35506;SDS011;36461;52.018;21.036;2023-01-09T03:32:23;28.40;;;18.40;;
35506;SDS011;36461;52.018;21.036;2023-01-09T03:34:51;29.70;;;19.40;;
35506;SDS011;36461;52.018;21.036;2023-01-09T03:37:19;27.80;;;19.00;;
35506;SDS011;36461;52.018;21.036;2023-01-09T03:39:47;27.20;;;18.60;;
35506;SDS011;36461;52.018;21.036;2023-01-09T03:42:15;27.00;;;19.20;;
35506;SDS011;36461;52.018;21.036;2023-01-09T03:44:43;27.90;;;18.90;;
35506;SDS011;36461;52.018;21.036;2023-01-09T03:47:11;29.80;;;19.30;;
35506;SDS011;36461;52.018;21.036;2023-01-09T03:49:39;25.50;;;17.90;;
35506;SDS011;36461;52.018;21.036;2023-01-09T03:52:07;30.30;;;19.90;;
35506;SDS011;36461;52.018;21.036;2023-01-09T03:54:35;26.40;;;18.00;;
35506;SDS011;36461;52.018;21.036;2023-01-09T03:57:03;25.50;;;18.00;;
35506;SDS011;36461;52.018;21.036;2023-01-09T03:59:31;25.60;;;18.70;;
35506;SDS011;36461;52.018;21.036;2023-01-09T04:01:59;27.00;;;18.20;;
35506;SDS011;36461;52.018;21.036;2023-01-09T04:04:30;26.10;;;18.80;;
35506;SDS011;36461;52.018;21.036;2023-01-09T04:06:58;28.90;;;18.00;;
35506;SDS011;36461;52.018;21.036;2023-01-09T04:09:26;27.40;;;17.60;;
35506;SDS011;36461;52.018;21.036;2023-01-09T04:11:54;27.60;;;18.50;;
35506;SDS011;36461;52.018;21.036;2023-01-09T04:14:22;25.30;;;17.60;;
35506;SDS011;36461;52.018;21.036;2023-01-09T04:16:51;26.10;;;17.70;;
35506;SDS011;36461;52.018;21.036;2023-01-09T04:19:19;26.80;;;16.60;;
35506;SDS011;36461;52.018;21.036;2023-01-09T04:21:47;26.20;;;18.10;;
35506;SDS011;36461;52.018;21.036;2023-01-09T04:24:15;28.90;;;18.10;;
35506;SDS011;36461;52.018;21.036;2023-01-09T04:26:43;25.10;;;17.50;;
35506;SDS011;36461;52.018;21.036;2023-01-09T04:29:11;24.20;;;17.50;;
35506;SDS011;36461;52.018;21.036;2023-01-09T04:31:39;25.20;;;17.30;;
35506;SDS011;36461;52.018;21.036;2023-01-09T04:34:07;26.10;;;17.90;;
35506;SDS011;36461;52.018;21.036;2023-01-09T04:36:35;27.30;;;17.50;;
35506;SDS011;36461;52.018;21.036;2023-01-09T04:39:03;27.20;;;18.30;;
35506;SDS011;36461;52.018;21.036;2023-01-09T04:41:31;29.00;;;18.60;;
35506;SDS011;36461;52.018;21.036;2023-01-09T04:46:47;26.20;;;17.50;;
35506;SDS011;36461;52.018;21.036;2023-01-09T04:49:16;26.10;;;18.10;;
35506;SDS011;36461;52.018;21.036;2023-01-09T04:51:44;25.30;;;17.60;;
35506;SDS011;36461;52.018;21.036;2023-01-09T04:54:12;26.40;;;17.20;;
35506;SDS011;36461;52.018;21.036;2023-01-09T04:56:40;24.60;;;16.70;;
35506;SDS011;36461;52.018;21.036;2023-01-09T04:59:09;25.50;;;16.80;;
35506;SDS011;36461;52.018;21.036;2023-01-09T05:01:37;24.50;;;16.70;;
35506;SDS011;36461;52.018;21.036;2023-01-09T05:04:06;26.60;;;17.70;;
35506;SDS011;36461;52.018;21.036;2023-01-09T05:06:34;27.10;;;17.90;;
35506;SDS011;36461;52.018;21.036;2023-01-09T05:09:03;25.50;;;17.30;;
35506;SDS011;36461;52.018;21.036;2023-01-09T05:11:31;25.50;;;16.60;;
35506;SDS011;36461;52.018;21.036;2023-01-09T05:13:59;22.30;;;16.00;;
35506;SDS011;36461;52.018;21.036;2023-01-09T05:16:27;24.40;;;16.40;;
35506;SDS011;36461;52.018;21.036;2023-01-09T05:18:57;23.70;;;15.70;;
35506;SDS011;36461;52.018;21.036;2023-01-09T05:21:27;22.70;;;15.60;;
35506;SDS011;36461;52.018;21.036;2023-01-09T05:23:55;22.30;;;15.70;;
35506;SDS011;36461;52.018;21.036;2023-01-09T05:26:23;25.50;;;16.00;;
35506;SDS011;36461;52.018;21.036;2023-01-09T05:28:54;24.30;;;15.60;;
35506;SDS011;36461;52.018;21.036;2023-01-09T05:31:24;23.00;;;16.40;;
35506;SDS011;36461;52.018;21.036;2023-01-09T05:33:53;21.50;;;15.50;;
35506;SDS011;36461;52.018;21.036;2023-01-09T05:36:22;21.80;;;15.20;;
35506;SDS011;36461;52.018;21.036;2023-01-09T05:38:50;24.80;;;16.20;;
35506;SDS011;36461;52.018;21.036;2023-01-09T05:41:18;21.10;;;15.60;;
35506;SDS011;36461;52.018;21.036;2023-01-09T05:43:46;20.60;;;15.10;;
35506;SDS011;36461;52.018;21.036;2023-01-09T05:46:14;23.50;;;15.90;;
35506;SDS011;36461;52.018;21.036;2023-01-09T05:48:42;21.80;;;15.20;;
35506;SDS011;36461;52.018;21.036;2023-01-09T05:51:11;21.10;;;14.80;;
35506;SDS011;36461;52.018;21.036;2023-01-09T05:53:39;20.80;;;15.00;;
35506;SDS011;36461;52.018;21.036;2023-01-09T05:56:07;21.30;;;14.60;;
35506;SDS011;36461;52.018;21.036;2023-01-09T05:58:37;20.40;;;14.10;;
35506;SDS011;36461;52.018;21.036;2023-01-09T06:01:05;22.50;;;15.20;;
35506;SDS011;36461;52.018;21.036;2023-01-09T06:03:34;20.50;;;15.00;;
35506;SDS011;36461;52.018;21.036;2023-01-09T06:06:02;23.20;;;15.60;;
35506;SDS011;36461;52.018;21.036;2023-01-09T06:08:30;21.90;;;15.50;;
35506;SDS011;36461;52.018;21.036;2023-01-09T06:10:58;21.70;;;14.90;;
35506;SDS011;36461;52.018;21.036;2023-01-09T06:13:26;21.10;;;13.80;;
35506;SDS011;36461;52.018;21.036;2023-01-09T06:15:54;21.90;;;14.40;;
35506;SDS011;36461;52.018;21.036;2023-01-09T06:18:22;19.00;;;14.10;;
35506;SDS011;36461;52.018;21.036;2023-01-09T06:20:50;19.90;;;14.40;;
35506;SDS011;36461;52.018;21.036;2023-01-09T06:23:18;23.90;;;14.50;;
35506;SDS011;36461;52.018;21.036;2023-01-09T06:25:46;21.90;;;15.00;;
35506;SDS011;36461;52.018;21.036;2023-01-09T06:28:14;21.50;;;15.10;;
35506;SDS011;36461;52.018;21.036;2023-01-09T06:30:42;22.20;;;14.50;;
35506;SDS011;36461;52.018;21.036;2023-01-09T06:33:10;20.80;;;14.90;;
35506;SDS011;36461;52.018;21.036;2023-01-09T06:35:38;21.00;;;14.10;;
35506;SDS011;36461;52.018;21.036;2023-01-09T06:38:06;22.80;;;15.30;;
35506;SDS011;36461;52.018;21.036;2023-01-09T06:40:34;21.50;;;14.90;;
35506;SDS011;36461;52.018;21.036;2023-01-09T06:43:02;21.50;;;14.30;;
35506;SDS011;36461;52.018;21.036;2023-01-09T06:45:31;20.30;;;13.80;;
35506;SDS011;36461;52.018;21.036;2023-01-09T06:47:58;20.10;;;13.90;;
35506;SDS011;36461;52.018;21.036;2023-01-09T06:50:26;18.80;;;13.60;;
35506;SDS011;36461;52.018;21.036;2023-01-09T06:52:54;20.30;;;13.30;;
35506;SDS011;36461;52.018;21.036;2023-01-09T06:55:22;19.10;;;13.70;;
35506;SDS011;36461;52.018;21.036;2023-01-09T06:57:52;20.80;;;12.70;;
35506;SDS011;36461;52.018;21.036;2023-01-09T07:00:20;20.20;;;13.70;;
35506;SDS011;36461;52.018;21.036;2023-01-09T07:02:48;21.00;;;13.80;;
35506;SDS011;36461;52.018;21.036;2023-01-09T07:05:17;19.80;;;13.80;;
35506;SDS011;36461;52.018;21.036;2023-01-09T07:07:45;19.40;;;13.30;;
35506;SDS011;36461;52.018;21.036;2023-01-09T07:10:12;20.20;;;14.40;;
35506;SDS011;36461;52.018;21.036;2023-01-09T07:12:41;19.70;;;12.80;;
35506;SDS011;36461;52.018;21.036;2023-01-09T07:15:09;18.50;;;13.30;;
35506;SDS011;36461;52.018;21.036;2023-01-09T07:17:38;18.70;;;13.00;;
35506;SDS011;36461;52.018;21.036;2023-01-09T07:20:06;18.70;;;13.20;;
35506;SDS011;36461;52.018;21.036;2023-01-09T07:22:34;17.70;;;13.50;;
35506;SDS011;36461;52.018;21.036;2023-01-09T07:25:02;19.60;;;13.40;;
35506;SDS011;36461;52.018;21.036;2023-01-09T07:27:31;20.50;;;14.00;;
35506;SDS011;36461;52.018;21.036;2023-01-09T07:29:59;16.70;;;11.80;;
35506;SDS011;36461;52.018;21.036;2023-01-09T07:32:26;18.40;;;13.20;;
35506;SDS011;36461;52.018;21.036;2023-01-09T07:34:54;19.40;;;14.00;;
35506;SDS011;36461;52.018;21.036;2023-01-09T07:37:22;22.60;;;13.90;;
35506;SDS011;36461;52.018;21.036;2023-01-09T07:39:51;19.20;;;14.10;;
35506;SDS011;36461;52.018;21.036;2023-01-09T07:42:19;20.20;;;13.50;;
35506;SDS011;36461;52.018;21.036;2023-01-09T07:44:48;19.00;;;13.20;;
35506;SDS011;36461;52.018;21.036;2023-01-09T07:47:15;20.70;;;13.90;;
35506;SDS011;36461;52.018;21.036;2023-01-09T07:49:43;17.80;;;13.50;;
35506;SDS011;36461;52.018;21.036;2023-01-09T07:52:11;20.50;;;13.60;;
35506;SDS011;36461;52.018;21.036;2023-01-09T07:54:39;20.20;;;13.10;;
35506;SDS011;36461;52.018;21.036;2023-01-09T07:57:07;22.00;;;14.10;;
35506;SDS011;36461;52.018;21.036;2023-01-09T07:59:35;20.00;;;14.10;;
35506;SDS011;36461;52.018;21.036;2023-01-09T08:02:03;20.20;;;14.60;;
35506;SDS011;36461;52.018;21.036;2023-01-09T08:04:32;20.40;;;14.20;;
35506;SDS011;36461;52.018;21.036;2023-01-09T08:07:00;18.40;;;13.60;;
35506;SDS011;36461;52.018;21.036;2023-01-09T08:09:29;18.90;;;13.60;;
35506;SDS011;36461;52.018;21.036;2023-01-09T08:11:57;19.00;;;13.40;;
35506;SDS011;36461;52.018;21.036;2023-01-09T08:14:25;20.10;;;14.00;;
35506;SDS011;36461;52.018;21.036;2023-01-09T08:16:53;19.40;;;13.80;;
35506;SDS011;36461;52.018;21.036;2023-01-09T08:19:21;22.50;;;14.70;;
35506;SDS011;36461;52.018;21.036;2023-01-09T08:21:50;20.50;;;14.90;;
35506;SDS011;36461;52.018;21.036;2023-01-09T08:24:18;23.40;;;16.80;;
35506;SDS011;36461;52.018;21.036;2023-01-09T08:26:46;24.10;;;15.80;;
35506;SDS011;36461;52.018;21.036;2023-01-09T08:29:14;24.10;;;16.30;;
35506;SDS011;36461;52.018;21.036;2023-01-09T08:31:42;24.60;;;15.70;;
35506;SDS011;36461;52.018;21.036;2023-01-09T08:34:10;23.80;;;14.50;;
35506;SDS011;36461;52.018;21.036;2023-01-09T08:36:37;20.30;;;13.70;;
35506;SDS011;36461;52.018;21.036;2023-01-09T08:39:05;22.60;;;14.50;;
35506;SDS011;36461;52.018;21.036;2023-01-09T08:41:33;18.70;;;13.40;;
35506;SDS011;36461;52.018;21.036;2023-01-09T08:44:20;22.50;;;13.30;;
35506;SDS011;36461;52.018;21.036;2023-01-09T08:47:06;19.00;;;13.30;;
35506;SDS011;36461;52.018;21.036;2023-01-09T08:49:36;19.80;;;14.40;;
35506;SDS011;36461;52.018;21.036;2023-01-09T08:52:05;20.20;;;13.00;;
35506;SDS011;36461;52.018;21.036;2023-01-09T08:54:34;17.70;;;12.90;;
35506;SDS011;36461;52.018;21.036;2023-01-09T08:57:06;18.60;;;13.30;;
35506;SDS011;36461;52.018;21.036;2023-01-09T08:59:34;19.60;;;12.90;;
35506;SDS011;36461;52.018;21.036;2023-01-09T09:02:03;19.20;;;13.10;;
35506;SDS011;36461;52.018;21.036;2023-01-09T09:04:31;18.00;;;13.20;;
35506;SDS011;36461;52.018;21.036;2023-01-09T09:06:59;19.30;;;12.90;;
35506;SDS011;36461;52.018;21.036;2023-01-09T09:09:27;20.10;;;13.10;;
35506;SDS011;36461;52.018;21.036;2023-01-09T09:11:55;20.20;;;14.00;;
35506;SDS011;36461;52.018;21.036;2023-01-09T09:14:23;20.90;;;14.10;;
35506;SDS011;36461;52.018;21.036;2023-01-09T09:17:09;20.60;;;14.20;;
35506;SDS011;36461;52.018;21.036;2023-01-09T09:19:37;21.30;;;14.80;;
35506;SDS011;36461;52.018;21.036;2023-01-09T09:22:06;20.40;;;14.10;;
35506;SDS011;36461;52.018;21.036;2023-01-09T09:24:34;18.90;;;13.60;;
35506;SDS011;36461;52.018;21.036;2023-01-09T09:27:01;19.20;;;13.90;;
35506;SDS011;36461;52.018;21.036;2023-01-09T09:29:31;22.00;;;14.80;;
35506;SDS011;36461;52.018;21.036;2023-01-09T09:31:59;20.70;;;14.80;;
35506;SDS011;36461;52.018;21.036;2023-01-09T09:34:27;19.10;;;13.70;;
35506;SDS011;36461;52.018;21.036;2023-01-09T09:36:55;21.70;;;14.90;;
35506;SDS011;36461;52.018;21.036;2023-01-09T09:39:24;21.00;;;14.20;;
35506;SDS011;36461;52.018;21.036;2023-01-09T09:50:50;18.40;;;12.70;;
35506;SDS011;36461;52.018;21.036;2023-01-09T09:53:28;21.20;;;14.50;;
35506;SDS011;36461;52.018;21.036;2023-01-09T09:56:03;18.40;;;13.00;;
35506;SDS011;36461;52.018;21.036;2023-01-09T09:58:36;18.70;;;13.10;;
35506;SDS011;36461;52.018;21.036;2023-01-09T10:01:09;18.70;;;12.40;;
35506;SDS011;36461;52.018;21.036;2023-01-09T10:03:54;17.90;;;12.70;;
35506;SDS011;36461;52.018;21.036;2023-01-09T10:14:17;17.70;;;12.60;;
35506;SDS011;36461;52.018;21.036;2023-01-09T10:22:15;22.60;;;15.80;;
35506;SDS011;36461;52.018;21.036;2023-01-09T10:24:51;20.60;;;14.50;;
35506;SDS011;36461;52.018;21.036;2023-01-09T10:30:26;20.80;;;14.50;;
35506;SDS011;36461;52.018;21.036;2023-01-09T10:38:16;23.30;;;15.50;;
35506;SDS011;36461;52.018;21.036;2023-01-09T10:41:12;23.90;;;16.00;;
35506;SDS011;36461;52.018;21.036;2023-01-09T10:43:44;22.40;;;15.60;;
35506;SDS011;36461;52.018;21.036;2023-01-09T10:46:29;21.50;;;16.00;;
35506;SDS011;36461;52.018;21.036;2023-01-09T10:49:06;20.90;;;15.10;;
35506;SDS011;36461;52.018;21.036;2023-01-09T10:54:16;22.00;;;15.90;;
35506;SDS011;36461;52.018;21.036;2023-01-09T10:56:55;19.50;;;14.40;;
35506;SDS011;36461;52.018;21.036;2023-01-09T10:59:39;20.80;;;14.40;;
35506;SDS011;36461;52.018;21.036;2023-01-09T11:02:19;19.60;;;14.50;;
35506;SDS011;36461;52.018;21.036;2023-01-09T11:04:56;17.50;;;13.70;;
35506;SDS011;36461;52.018;21.036;2023-01-09T11:07:30;17.40;;;13.70;;
35506;SDS011;36461;52.018;21.036;2023-01-09T11:10:05;19.50;;;14.20;;
35506;SDS011;36461;52.018;21.036;2023-01-09T11:12:36;19.40;;;14.20;;
35506;SDS011;36461;52.018;21.036;2023-01-09T11:17:46;18.80;;;14.20;;
35506;SDS011;36461;52.018;21.036;2023-01-09T11:22:53;18.20;;;13.40;;
35506;SDS011;36461;52.018;21.036;2023-01-09T11:25:25;20.00;;;14.80;;
35506;SDS011;36461;52.018;21.036;2023-01-09T11:28:02;21.50;;;14.80;;
35506;SDS011;36461;52.018;21.036;2023-01-09T11:30:33;21.20;;;14.80;;
35506;SDS011;36461;52.018;21.036;2023-01-09T11:33:18;21.70;;;16.60;;
35506;SDS011;36461;52.018;21.036;2023-01-09T11:36:12;20.60;;;16.30;;
35506;SDS011;36461;52.018;21.036;2023-01-09T11:38:49;22.80;;;16.80;;
35506;SDS011;36461;52.018;21.036;2023-01-09T11:41:26;19.80;;;15.70;;
35506;SDS011;36461;52.018;21.036;2023-01-09T11:44:04;19.80;;;15.90;;
35506;SDS011;36461;52.018;21.036;2023-01-09T11:46:34;20.50;;;15.60;;
35506;SDS011;36461;52.018;21.036;2023-01-09T11:49:27;18.50;;;15.50;;
35506;SDS011;36461;52.018;21.036;2023-01-09T11:55:03;21.60;;;15.60;;
35506;SDS011;36461;52.018;21.036;2023-01-09T11:57:41;19.90;;;16.00;;
35506;SDS011;36461;52.018;21.036;2023-01-09T12:00:34;20.30;;;15.90;;
35506;SDS011;36461;52.018;21.036;2023-01-09T12:10:02;19.10;;;14.50;;
35506;SDS011;36461;52.018;21.036;2023-01-09T12:16:22;19.40;;;14.30;;
35506;SDS011;36461;52.018;21.036;2023-01-09T12:22:48;19.70;;;15.30;;
35506;SDS011;36461;52.018;21.036;2023-01-09T12:25:54;21.50;;;15.80;;
35506;SDS011;36461;52.018;21.036;2023-01-09T12:37:59;21.50;;;16.60;;
35506;SDS011;36461;52.018;21.036;2023-01-09T12:41:13;20.40;;;15.60;;
35506;SDS011;36461;52.018;21.036;2023-01-09T12:44:12;20.10;;;15.90;;
35506;SDS011;36461;52.018;21.036;2023-01-09T12:54:41;19.90;;;15.80;;
35506;SDS011;36461;52.018;21.036;2023-01-09T12:59:47;18.70;;;15.10;;
35506;SDS011;36461;52.018;21.036;2023-01-09T13:02:34;21.60;;;16.10;;
35506;SDS011;36461;52.018;21.036;2023-01-09T13:08:07;19.30;;;15.20;;
35506;SDS011;36461;52.018;21.036;2023-01-09T13:10:51;19.80;;;15.30;;
35506;SDS011;36461;52.018;21.036;2023-01-09T13:16:16;21.30;;;15.20;;
35506;SDS011;36461;52.018;21.036;2023-01-09T13:18:51;21.10;;;16.70;;
35506;SDS011;36461;52.018;21.036;2023-01-09T13:21:29;21.80;;;15.90;;
35506;SDS011;36461;52.018;21.036;2023-01-09T13:26:42;21.30;;;16.40;;
35506;SDS011;36461;52.018;21.036;2023-01-09T13:32:00;25.40;;;19.10;;
35506;SDS011;36461;52.018;21.036;2023-01-09T13:34:36;26.20;;;17.80;;
35506;SDS011;36461;52.018;21.036;2023-01-09T13:37:06;19.30;;;15.80;;
35506;SDS011;36461;52.018;21.036;2023-01-09T13:43:01;20.40;;;15.80;;
35506;SDS011;36461;52.018;21.036;2023-01-09T13:45:31;20.20;;;14.90;;
35506;SDS011;36461;52.018;21.036;2023-01-09T13:50:36;21.10;;;16.00;;
35506;SDS011;36461;52.018;21.036;2023-01-09T13:58:30;22.40;;;16.00;;
35506;SDS011;36461;52.018;21.036;2023-01-09T14:06:41;23.80;;;19.50;;
35506;SDS011;36461;52.018;21.036;2023-01-09T14:09:29;21.40;;;16.70;;
35506;SDS011;36461;52.018;21.036;2023-01-09T14:12:04;20.50;;;16.50;;
35506;SDS011;36461;52.018;21.036;2023-01-09T14:14:33;21.30;;;17.40;;
35506;SDS011;36461;52.018;21.036;2023-01-09T14:17:05;21.50;;;16.90;;
35506;SDS011;36461;52.018;21.036;2023-01-09T14:19:43;21.50;;;17.20;;
35506;SDS011;36461;52.018;21.036;2023-01-09T14:22:22;20.80;;;16.20;;
35506;SDS011;36461;52.018;21.036;2023-01-09T14:25:00;23.40;;;16.70;;
35506;SDS011;36461;52.018;21.036;2023-01-09T14:41:58;22.30;;;16.90;;
35506;SDS011;36461;52.018;21.036;2023-01-09T14:47:21;22.50;;;16.90;;
35506;SDS011;36461;52.018;21.036;2023-01-09T14:49:58;22.20;;;16.30;;
35506;SDS011;36461;52.018;21.036;2023-01-09T14:52:35;22.10;;;17.50;;
35506;SDS011;36461;52.018;21.036;2023-01-09T14:55:12;23.20;;;16.70;;
35506;SDS011;36461;52.018;21.036;2023-01-09T14:57:47;21.40;;;16.60;;
35506;SDS011;36461;52.018;21.036;2023-01-09T15:00:19;20.00;;;16.40;;
35506;SDS011;36461;52.018;21.036;2023-01-09T15:02:49;21.20;;;16.00;;
35506;SDS011;36461;52.018;21.036;2023-01-09T15:05:20;24.10;;;18.70;;
35506;SDS011;36461;52.018;21.036;2023-01-09T15:07:55;19.50;;;17.40;;
35506;SDS011;36461;52.018;21.036;2023-01-09T15:10:28;21.40;;;17.60;;
35506;SDS011;36461;52.018;21.036;2023-01-09T15:12:59;30.80;;;23.10;;
35506;SDS011;36461;52.018;21.036;2023-01-09T15:15:29;26.40;;;21.20;;
35506;SDS011;36461;52.018;21.036;2023-01-09T15:17:58;28.50;;;20.90;;
35506;SDS011;36461;52.018;21.036;2023-01-09T15:20:29;29.00;;;22.40;;
35506;SDS011;36461;52.018;21.036;2023-01-09T15:22:59;26.20;;;19.10;;
35506;SDS011;36461;52.018;21.036;2023-01-09T15:25:29;25.10;;;19.00;;
35506;SDS011;36461;52.018;21.036;2023-01-09T15:28:21;25.10;;;18.60;;
35506;SDS011;36461;52.018;21.036;2023-01-09T15:31:08;25.80;;;19.30;;
35506;SDS011;36461;52.018;21.036;2023-01-09T15:33:49;24.70;;;18.70;;
35506;SDS011;36461;52.018;21.036;2023-01-09T15:36:21;25.30;;;19.20;;
35506;SDS011;36461;52.018;21.036;2023-01-09T15:38:52;26.30;;;20.20;;
35506;SDS011;36461;52.018;21.036;2023-01-09T15:41:26;31.50;;;22.20;;
35506;SDS011;36461;52.018;21.036;2023-01-09T15:44:18;28.00;;;23.10;;
35506;SDS011;36461;52.018;21.036;2023-01-09T15:46:56;30.40;;;21.80;;
35506;SDS011;36461;52.018;21.036;2023-01-09T15:49:26;28.80;;;21.70;;
35506;SDS011;36461;52.018;21.036;2023-01-09T15:51:55;30.10;;;21.30;;
35506;SDS011;36461;52.018;21.036;2023-01-09T15:54:28;27.90;;;22.40;;
35506;SDS011;36461;52.018;21.036;2023-01-09T15:59:51;29.00;;;20.80;;
35506;SDS011;36461;52.018;21.036;2023-01-09T16:02:21;28.60;;;21.20;;
35506;SDS011;36461;52.018;21.036;2023-01-09T16:05:14;25.00;;;20.00;;
35506;SDS011;36461;52.018;21.036;2023-01-09T16:07:44;28.80;;;21.70;;
35506;SDS011;36461;52.018;21.036;2023-01-09T16:10:33;33.40;;;24.20;;
35506;SDS011;36461;52.018;21.036;2023-01-09T16:13:02;27.50;;;20.90;;
35506;SDS011;36461;52.018;21.036;2023-01-09T16:15:31;29.80;;;21.70;;
35506;SDS011;36461;52.018;21.036;2023-01-09T16:20:47;25.50;;;20.30;;
35506;SDS011;36461;52.018;21.036;2023-01-09T16:26:12;24.20;;;18.80;;
35506;SDS011;36461;52.018;21.036;2023-01-09T16:28:46;30.20;;;20.80;;
35506;SDS011;36461;52.018;21.036;2023-01-09T16:33:47;27.60;;;20.50;;
35506;SDS011;36461;52.018;21.036;2023-01-09T16:36:20;24.10;;;19.80;;
35506;SDS011;36461;52.018;21.036;2023-01-09T16:38:49;25.70;;;19.30;;
35506;SDS011;36461;52.018;21.036;2023-01-09T16:41:17;26.10;;;19.40;;
35506;SDS011;36461;52.018;21.036;2023-01-09T16:44:08;23.70;;;19.10;;
35506;SDS011;36461;52.018;21.036;2023-01-09T16:46:38;26.00;;;21.00;;
35506;SDS011;36461;52.018;21.036;2023-01-09T16:49:15;28.70;;;21.20;;
35506;SDS011;36461;52.018;21.036;2023-01-09T16:51:45;28.10;;;20.80;;
35506;SDS011;36461;52.018;21.036;2023-01-09T16:54:14;27.00;;;20.90;;
35506;SDS011;36461;52.018;21.036;2023-01-09T16:56:44;26.60;;;20.90;;
35506;SDS011;36461;52.018;21.036;2023-01-09T16:59:20;27.30;;;21.90;;
35506;SDS011;36461;52.018;21.036;2023-01-09T17:01:53;27.40;;;20.90;;
35506;SDS011;36461;52.018;21.036;2023-01-09T17:04:22;27.70;;;21.40;;
35506;SDS011;36461;52.018;21.036;2023-01-09T17:06:53;27.10;;;20.40;;
35506;SDS011;36461;52.018;21.036;2023-01-09T17:09:21;29.40;;;21.50;;
35506;SDS011;36461;52.018;21.036;2023-01-09T17:11:54;25.70;;;21.70;;
35506;SDS011;36461;52.018;21.036;2023-01-09T17:14:22;28.70;;;21.60;;
35506;SDS011;36461;52.018;21.036;2023-01-09T17:16:51;25.40;;;20.50;;
35506;SDS011;36461;52.018;21.036;2023-01-09T17:19:19;28.70;;;23.20;;
35506;SDS011;36461;52.018;21.036;2023-01-09T17:21:48;27.30;;;21.30;;